sensor_id;sensor_type;location;lat;lon;timestamp;P1;durP1;ratioP1;P2;durP2;ratioP2
57107;SDS011;42987;52.916;6.542;2022-11-20T00:00:09;44.17;;;39.57;;
57107;SDS011;42987;52.916;6.542;2022-11-20T00:02:36;46.20;;;41.30;;
57107;SDS011;42987;52.916;6.542;2022-11-20T00:05:02;44.43;;;39.83;;
57107;SDS011;42987;52.916;6.542;2022-11-20T00:07:27;37.97;;;34.17;;
57107;SDS011;42987;52.916;6.542;2022-11-20T00:09:56;38.43;;;34.47;;
57107;SDS011;42987;52.916;6.542;2022-11-20T00:12:22;37.27;;;33.40;;
57107;SDS011;42987;52.916;6.542;2022-11-20T00:14:47;39.87;;;35.70;;
57107;SDS011;42987;52.916;6.542;2022-11-20T00:17:13;33.20;;;29.70;;
57107;SDS011;42987;52.916;6.542;2022-11-20T00:19:39;36.77;;;32.97;;
57107;SDS011;42987;52.916;6.542;2022-11-20T00:22:05;35.60;;;31.93;;
57107;SDS011;42987;52.916;6.542;2022-11-20T00:24:31;33.70;;;30.10;;
57107;SDS011;42987;52.916;6.542;2022-11-20T00:26:56;39.57;;;35.37;;
57107;SDS011;42987;52.916;6.542;2022-11-20T00:29:22;38.37;;;34.20;;
57107;SDS011;42987;52.916;6.542;2022-11-20T00:31:48;35.13;;;31.33;;
57107;SDS011;42987;52.916;6.542;2022-11-20T00:34:14;33.13;;;29.17;;
57107;SDS011;42987;52.916;6.542;2022-11-20T00:36:39;34.60;;;30.90;;
57107;SDS011;42987;52.916;6.542;2022-11-20T00:39:08;31.57;;;28.27;;
57107;SDS011;42987;52.916;6.542;2022-11-20T00:41:34;28.13;;;25.13;;
57107;SDS011;42987;52.916;6.542;2022-11-20T00:43:59;29.23;;;26.13;;
57107;SDS011;42987;52.916;6.542;2022-11-20T00:46:26;26.87;;;24.10;;
57107;SDS011;42987;52.916;6.542;2022-11-20T00:48:52;27.97;;;25.03;;
57107;SDS011;42987;52.916;6.542;2022-11-20T00:51:20;26.47;;;23.67;;
57107;SDS011;42987;52.916;6.542;2022-11-20T00:53:47;25.87;;;23.23;;
57107;SDS011;42987;52.916;6.542;2022-11-20T00:56:14;32.30;;;28.90;;
57107;SDS011;42987;52.916;6.542;2022-11-20T00:58:43;29.20;;;26.17;;
57107;SDS011;42987;52.916;6.542;2022-11-20T01:01:17;27.63;;;24.73;;
57107;SDS011;42987;52.916;6.542;2022-11-20T01:03:46;26.23;;;23.50;;
57107;SDS011;42987;52.916;6.542;2022-11-20T01:06:15;24.50;;;21.90;;
57107;SDS011;42987;52.916;6.542;2022-11-20T01:08:46;28.43;;;25.50;;
57107;SDS011;42987;52.916;6.542;2022-11-20T01:11:17;27.17;;;24.33;;
57107;SDS011;42987;52.916;6.542;2022-11-20T01:13:45;27.17;;;24.27;;
57107;SDS011;42987;52.916;6.542;2022-11-20T01:16:13;26.37;;;23.53;;
57107;SDS011;42987;52.916;6.542;2022-11-20T01:18:48;27.77;;;24.87;;
57107;SDS011;42987;52.916;6.542;2022-11-20T01:21:16;31.37;;;27.73;;
57107;SDS011;42987;52.916;6.542;2022-11-20T01:23:44;30.57;;;27.33;;
57107;SDS011;42987;52.916;6.542;2022-11-20T01:26:14;28.63;;;25.58;;
57107;SDS011;42987;52.916;6.542;2022-11-20T01:28:42;30.20;;;27.00;;
57107;SDS011;42987;52.916;6.542;2022-11-20T01:33:41;28.10;;;25.20;;
57107;SDS011;42987;52.916;6.542;2022-11-20T01:36:07;32.10;;;28.67;;
57107;SDS011;42987;52.916;6.542;2022-11-20T01:38:34;33.67;;;28.03;;
57107;SDS011;42987;52.916;6.542;2022-11-20T01:41:00;28.77;;;25.67;;
57107;SDS011;42987;52.916;6.542;2022-11-20T01:43:26;29.07;;;26.03;;
57107;SDS011;42987;52.916;6.542;2022-11-20T01:48:47;31.47;;;28.17;;
57107;SDS011;42987;52.916;6.542;2022-11-20T01:51:21;34.93;;;30.53;;
57107;SDS011;42987;52.916;6.542;2022-11-20T01:53:57;30.77;;;27.33;;
57107;SDS011;42987;52.916;6.542;2022-11-20T01:56:26;28.57;;;25.57;;
57107;SDS011;42987;52.916;6.542;2022-11-20T01:58:58;31.73;;;28.30;;
57107;SDS011;42987;52.916;6.542;2022-11-20T02:01:26;28.88;;;25.88;;
57107;SDS011;42987;52.916;6.542;2022-11-20T02:03:52;30.97;;;27.57;;
57107;SDS011;42987;52.916;6.542;2022-11-20T02:06:21;32.80;;;29.37;;
57107;SDS011;42987;52.916;6.542;2022-11-20T02:08:51;27.67;;;24.77;;
57107;SDS011;42987;52.916;6.542;2022-11-20T02:11:17;31.77;;;28.37;;
57107;SDS011;42987;52.916;6.542;2022-11-20T02:13:43;31.20;;;27.90;;
57107;SDS011;42987;52.916;6.542;2022-11-20T02:16:26;31.10;;;27.97;;
57107;SDS011;42987;52.916;6.542;2022-11-20T02:18:59;29.47;;;26.30;;
57107;SDS011;42987;52.916;6.542;2022-11-20T02:21:30;27.93;;;25.03;;
57107;SDS011;42987;52.916;6.542;2022-11-20T02:24:03;26.90;;;24.10;;
57107;SDS011;42987;52.916;6.542;2022-11-20T02:26:53;29.17;;;26.13;;
57107;SDS011;42987;52.916;6.542;2022-11-20T02:29:26;31.50;;;28.00;;
57107;SDS011;42987;52.916;6.542;2022-11-20T02:31:59;27.97;;;25.00;;
57107;SDS011;42987;52.916;6.542;2022-11-20T02:34:27;32.10;;;28.70;;
57107;SDS011;42987;52.916;6.542;2022-11-20T02:36:53;26.10;;;23.40;;
57107;SDS011;42987;52.916;6.542;2022-11-20T02:39:20;28.07;;;25.10;;
57107;SDS011;42987;52.916;6.542;2022-11-20T02:41:50;29.20;;;26.10;;
57107;SDS011;42987;52.916;6.542;2022-11-20T02:44:21;30.00;;;26.97;;
57107;SDS011;42987;52.916;6.542;2022-11-20T02:46:50;33.57;;;29.90;;
57107;SDS011;42987;52.916;6.542;2022-11-20T02:49:16;25.67;;;23.07;;
57107;SDS011;42987;52.916;6.542;2022-11-20T02:51:41;26.53;;;23.80;;
57107;SDS011;42987;52.916;6.542;2022-11-20T02:54:07;27.07;;;24.27;;
57107;SDS011;42987;52.916;6.542;2022-11-20T02:56:33;30.60;;;27.40;;
57107;SDS011;42987;52.916;6.542;2022-11-20T02:58:59;29.27;;;26.33;;
57107;SDS011;42987;52.916;6.542;2022-11-20T03:01:25;30.80;;;27.60;;
57107;SDS011;42987;52.916;6.542;2022-11-20T03:03:50;26.90;;;24.07;;
57107;SDS011;42987;52.916;6.542;2022-11-20T03:06:19;26.33;;;23.63;;
57107;SDS011;42987;52.916;6.542;2022-11-20T03:08:45;29.23;;;26.23;;
57107;SDS011;42987;52.916;6.542;2022-11-20T03:11:10;32.83;;;28.47;;
57107;SDS011;42987;52.916;6.542;2022-11-20T03:13:37;32.17;;;28.73;;
57107;SDS011;42987;52.916;6.542;2022-11-20T03:16:06;28.50;;;25.60;;
57107;SDS011;42987;52.916;6.542;2022-11-20T03:18:37;31.37;;;26.93;;
57107;SDS011;42987;52.916;6.542;2022-11-20T03:21:03;27.77;;;24.97;;
57107;SDS011;42987;52.916;6.542;2022-11-20T03:23:29;25.63;;;23.03;;
57107;SDS011;42987;52.916;6.542;2022-11-20T03:26:07;25.50;;;22.90;;
57107;SDS011;42987;52.916;6.542;2022-11-20T03:28:36;27.53;;;24.60;;
57107;SDS011;42987;52.916;6.542;2022-11-20T03:31:06;27.10;;;24.30;;
57107;SDS011;42987;52.916;6.542;2022-11-20T03:33:36;26.00;;;23.30;;
57107;SDS011;42987;52.916;6.542;2022-11-20T03:36:04;28.20;;;25.20;;
57107;SDS011;42987;52.916;6.542;2022-11-20T03:38:31;26.50;;;23.80;;
57107;SDS011;42987;52.916;6.542;2022-11-20T03:41:00;26.97;;;24.37;;
57107;SDS011;42987;52.916;6.542;2022-11-20T03:43:30;24.50;;;22.00;;
57107;SDS011;42987;52.916;6.542;2022-11-20T03:45:56;23.87;;;21.37;;
57107;SDS011;42987;52.916;6.542;2022-11-20T03:48:23;26.40;;;23.70;;
57107;SDS011;42987;52.916;6.542;2022-11-20T03:50:49;24.57;;;22.07;;
57107;SDS011;42987;52.916;6.542;2022-11-20T03:53:15;26.80;;;24.07;;
57107;SDS011;42987;52.916;6.542;2022-11-20T03:55:41;24.07;;;21.57;;
57107;SDS011;42987;52.916;6.542;2022-11-20T03:58:07;24.83;;;22.33;;
57107;SDS011;42987;52.916;6.542;2022-11-20T04:00:33;24.47;;;21.97;;
57107;SDS011;42987;52.916;6.542;2022-11-20T04:02:59;23.30;;;21.00;;
57107;SDS011;42987;52.916;6.542;2022-11-20T04:05:26;25.23;;;22.63;;
57107;SDS011;42987;52.916;6.542;2022-11-20T04:07:52;26.00;;;23.37;;
57107;SDS011;42987;52.916;6.542;2022-11-20T04:10:18;27.33;;;24.47;;
57107;SDS011;42987;52.916;6.542;2022-11-20T04:12:44;26.47;;;23.87;;
57107;SDS011;42987;52.916;6.542;2022-11-20T04:15:09;26.07;;;23.43;;
57107;SDS011;42987;52.916;6.542;2022-11-20T04:17:35;24.27;;;21.80;;
57107;SDS011;42987;52.916;6.542;2022-11-20T04:20:01;27.67;;;24.80;;
57107;SDS011;42987;52.916;6.542;2022-11-20T04:22:28;26.23;;;23.57;;
57107;SDS011;42987;52.916;6.542;2022-11-20T04:24:56;23.60;;;21.30;;
57107;SDS011;42987;52.916;6.542;2022-11-20T04:27:22;23.93;;;21.53;;
57107;SDS011;42987;52.916;6.542;2022-11-20T04:29:47;27.40;;;24.57;;
57107;SDS011;42987;52.916;6.542;2022-11-20T04:32:13;25.67;;;23.03;;
57107;SDS011;42987;52.916;6.542;2022-11-20T04:34:39;29.37;;;26.23;;
57107;SDS011;42987;52.916;6.542;2022-11-20T04:37:05;27.10;;;24.30;;
57107;SDS011;42987;52.916;6.542;2022-11-20T04:39:31;28.40;;;25.50;;
57107;SDS011;42987;52.916;6.542;2022-11-20T04:41:56;26.90;;;24.07;;
57107;SDS011;42987;52.916;6.542;2022-11-20T04:44:41;25.17;;;22.67;;
57107;SDS011;42987;52.916;6.542;2022-11-20T04:47:07;23.83;;;21.50;;
57107;SDS011;42987;52.916;6.542;2022-11-20T04:49:32;25.47;;;22.83;;
57107;SDS011;42987;52.916;6.542;2022-11-20T04:51:58;26.80;;;24.10;;
57107;SDS011;42987;52.916;6.542;2022-11-20T04:54:24;24.43;;;21.93;;
57107;SDS011;42987;52.916;6.542;2022-11-20T04:56:50;25.47;;;22.77;;
57107;SDS011;42987;52.916;6.542;2022-11-20T04:59:16;24.77;;;22.17;;
57107;SDS011;42987;52.916;6.542;2022-11-20T05:01:42;25.43;;;22.93;;
57107;SDS011;42987;52.916;6.542;2022-11-20T05:04:07;24.67;;;22.27;;
57107;SDS011;42987;52.916;6.542;2022-11-20T05:06:33;26.77;;;23.70;;
57107;SDS011;42987;52.916;6.542;2022-11-20T05:08:59;25.47;;;22.87;;
57107;SDS011;42987;52.916;6.542;2022-11-20T05:11:26;23.27;;;20.77;;
57107;SDS011;42987;52.916;6.542;2022-11-20T05:13:54;24.67;;;22.20;;
57107;SDS011;42987;52.916;6.542;2022-11-20T05:16:21;24.23;;;21.07;;
57107;SDS011;42987;52.916;6.542;2022-11-20T05:18:48;21.93;;;19.50;;
57107;SDS011;42987;52.916;6.542;2022-11-20T05:21:15;24.87;;;22.37;;
57107;SDS011;42987;52.916;6.542;2022-11-20T05:23:41;25.30;;;22.60;;
57107;SDS011;42987;52.916;6.542;2022-11-20T05:26:11;23.57;;;21.07;;
57107;SDS011;42987;52.916;6.542;2022-11-20T05:28:42;24.57;;;21.97;;
57107;SDS011;42987;52.916;6.542;2022-11-20T05:31:12;22.70;;;20.37;;
57107;SDS011;42987;52.916;6.542;2022-11-20T05:33:40;22.33;;;20.07;;
57107;SDS011;42987;52.916;6.542;2022-11-20T05:36:07;23.40;;;21.00;;
57107;SDS011;42987;52.916;6.542;2022-11-20T05:38:34;23.90;;;21.57;;
57107;SDS011;42987;52.916;6.542;2022-11-20T05:41:04;24.87;;;22.27;;
57107;SDS011;42987;52.916;6.542;2022-11-20T05:43:38;21.50;;;19.30;;
57107;SDS011;42987;52.916;6.542;2022-11-20T05:46:05;22.77;;;20.40;;
57107;SDS011;42987;52.916;6.542;2022-11-20T05:48:33;25.73;;;23.10;;
57107;SDS011;42987;52.916;6.542;2022-11-20T05:50:59;23.50;;;21.13;;
57107;SDS011;42987;52.916;6.542;2022-11-20T05:53:26;23.00;;;20.70;;
57107;SDS011;42987;52.916;6.542;2022-11-20T05:56:02;23.83;;;21.23;;
57107;SDS011;42987;52.916;6.542;2022-11-20T05:58:30;23.37;;;20.97;;
57107;SDS011;42987;52.916;6.542;2022-11-20T06:01:03;23.07;;;20.60;;
57107;SDS011;42987;52.916;6.542;2022-11-20T06:03:29;24.80;;;22.20;;
57107;SDS011;42987;52.916;6.542;2022-11-20T06:05:55;21.77;;;19.57;;
57107;SDS011;42987;52.916;6.542;2022-11-20T06:08:20;23.20;;;20.90;;
57107;SDS011;42987;52.916;6.542;2022-11-20T06:10:46;26.83;;;23.97;;
57107;SDS011;42987;52.916;6.542;2022-11-20T06:13:12;24.80;;;22.30;;
57107;SDS011;42987;52.916;6.542;2022-11-20T06:15:38;24.57;;;22.17;;
57107;SDS011;42987;52.916;6.542;2022-11-20T06:18:03;24.47;;;22.00;;
57107;SDS011;42987;52.916;6.542;2022-11-20T06:20:29;25.27;;;22.57;;
57107;SDS011;42987;52.916;6.542;2022-11-20T06:22:55;23.17;;;20.80;;
57107;SDS011;42987;52.916;6.542;2022-11-20T06:25:21;24.20;;;21.80;;
57107;SDS011;42987;52.916;6.542;2022-11-20T06:27:47;23.07;;;20.77;;
57107;SDS011;42987;52.916;6.542;2022-11-20T06:30:12;22.90;;;20.60;;
57107;SDS011;42987;52.916;6.542;2022-11-20T06:32:38;22.40;;;19.87;;
57107;SDS011;42987;52.916;6.542;2022-11-20T06:35:05;22.87;;;20.57;;
57107;SDS011;42987;52.916;6.542;2022-11-20T06:37:31;21.90;;;19.60;;
57107;SDS011;42987;52.916;6.542;2022-11-20T06:39:57;21.77;;;19.57;;
57107;SDS011;42987;52.916;6.542;2022-11-20T06:42:26;21.30;;;19.10;;
57107;SDS011;42987;52.916;6.542;2022-11-20T06:44:52;20.53;;;18.43;;
57107;SDS011;42987;52.916;6.542;2022-11-20T06:47:18;21.37;;;19.27;;
57107;SDS011;42987;52.916;6.542;2022-11-20T06:49:44;21.23;;;19.13;;
57107;SDS011;42987;52.916;6.542;2022-11-20T06:52:10;20.53;;;18.53;;
57107;SDS011;42987;52.916;6.542;2022-11-20T06:54:35;20.37;;;18.27;;
57107;SDS011;42987;52.916;6.542;2022-11-20T06:57:01;21.67;;;19.40;;
57107;SDS011;42987;52.916;6.542;2022-11-20T06:59:27;21.17;;;18.93;;
57107;SDS011;42987;52.916;6.542;2022-11-20T07:01:53;19.67;;;17.77;;
57107;SDS011;42987;52.916;6.542;2022-11-20T07:04:18;24.97;;;19.23;;
57107;SDS011;42987;52.916;6.542;2022-11-20T07:06:47;22.10;;;19.80;;
57107;SDS011;42987;52.916;6.542;2022-11-20T07:09:13;20.50;;;18.40;;
57107;SDS011;42987;52.916;6.542;2022-11-20T07:11:39;21.93;;;19.63;;
57107;SDS011;42987;52.916;6.542;2022-11-20T07:14:05;22.60;;;20.33;;
57107;SDS011;42987;52.916;6.542;2022-11-20T07:16:30;21.87;;;19.67;;
57107;SDS011;42987;52.916;6.542;2022-11-20T07:18:56;22.20;;;20.00;;
57107;SDS011;42987;52.916;6.542;2022-11-20T07:21:22;21.07;;;18.90;;
57107;SDS011;42987;52.916;6.542;2022-11-20T07:23:48;21.57;;;19.37;;
57107;SDS011;42987;52.916;6.542;2022-11-20T07:26:14;22.73;;;20.33;;
57107;SDS011;42987;52.916;6.542;2022-11-20T07:28:43;21.37;;;19.27;;
57107;SDS011;42987;52.916;6.542;2022-11-20T07:31:09;22.37;;;20.17;;
57107;SDS011;42987;52.916;6.542;2022-11-20T07:33:35;21.33;;;19.13;;
57107;SDS011;42987;52.916;6.542;2022-11-20T07:36:01;22.70;;;19.90;;
57107;SDS011;42987;52.916;6.542;2022-11-20T07:38:27;19.90;;;17.83;;
57107;SDS011;42987;52.916;6.542;2022-11-20T07:40:54;21.13;;;18.97;;
57107;SDS011;42987;52.916;6.542;2022-11-20T07:43:21;22.00;;;19.73;;
57107;SDS011;42987;52.916;6.542;2022-11-20T07:45:47;21.13;;;19.00;;
57107;SDS011;42987;52.916;6.542;2022-11-20T07:48:12;21.20;;;19.10;;
57107;SDS011;42987;52.916;6.542;2022-11-20T07:50:38;20.13;;;18.13;;
57107;SDS011;42987;52.916;6.542;2022-11-20T07:53:04;20.53;;;18.43;;
57107;SDS011;42987;52.916;6.542;2022-11-20T07:55:30;19.80;;;17.80;;
57107;SDS011;42987;52.916;6.542;2022-11-20T07:57:57;19.40;;;17.50;;
57107;SDS011;42987;52.916;6.542;2022-11-20T08:00:26;19.50;;;17.50;;
57107;SDS011;42987;52.916;6.542;2022-11-20T08:02:52;18.23;;;16.33;;
57107;SDS011;42987;52.916;6.542;2022-11-20T08:05:18;18.43;;;16.63;;
57107;SDS011;42987;52.916;6.542;2022-11-20T08:07:44;18.13;;;16.27;;
57107;SDS011;42987;52.916;6.542;2022-11-20T08:10:11;18.63;;;16.67;;
57107;SDS011;42987;52.916;6.542;2022-11-20T08:12:45;18.73;;;16.83;;
57107;SDS011;42987;52.916;6.542;2022-11-20T08:15:30;17.70;;;15.80;;
57107;SDS011;42987;52.916;6.542;2022-11-20T08:18:00;18.17;;;16.37;;
57107;SDS011;42987;52.916;6.542;2022-11-20T08:20:30;18.87;;;16.87;;
57107;SDS011;42987;52.916;6.542;2022-11-20T08:23:00;20.53;;;18.33;;
57107;SDS011;42987;52.916;6.542;2022-11-20T08:25:28;20.90;;;18.70;;
57107;SDS011;42987;52.916;6.542;2022-11-20T08:27:58;18.93;;;17.03;;
57107;SDS011;42987;52.916;6.542;2022-11-20T08:30:25;19.98;;;17.27;;
57107;SDS011;42987;52.916;6.542;2022-11-20T08:32:51;18.37;;;16.50;;
57107;SDS011;42987;52.916;6.542;2022-11-20T08:35:17;17.70;;;15.87;;
57107;SDS011;42987;52.916;6.542;2022-11-20T08:37:45;18.17;;;16.33;;
57107;SDS011;42987;52.916;6.542;2022-11-20T08:40:12;17.70;;;16.00;;
57107;SDS011;42987;52.916;6.542;2022-11-20T08:42:45;17.73;;;15.93;;
57107;SDS011;42987;52.916;6.542;2022-11-20T08:45:15;16.63;;;15.03;;
57107;SDS011;42987;52.916;6.542;2022-11-20T08:47:42;17.00;;;15.30;;
57107;SDS011;42987;52.916;6.542;2022-11-20T08:50:12;16.87;;;15.17;;
57107;SDS011;42987;52.916;6.542;2022-11-20T08:52:39;18.10;;;16.27;;
57107;SDS011;42987;52.916;6.542;2022-11-20T08:55:05;17.07;;;15.37;;
57107;SDS011;42987;52.916;6.542;2022-11-20T08:57:32;16.83;;;15.23;;
57107;SDS011;42987;52.916;6.542;2022-11-20T08:59:58;16.97;;;15.27;;
57107;SDS011;42987;52.916;6.542;2022-11-20T09:02:24;16.27;;;14.67;;
57107;SDS011;42987;52.916;6.542;2022-11-20T09:04:50;14.67;;;13.20;;
57107;SDS011;42987;52.916;6.542;2022-11-20T09:07:16;16.77;;;15.07;;
57107;SDS011;42987;52.916;6.542;2022-11-20T09:09:42;16.20;;;14.60;;
57107;SDS011;42987;52.916;6.542;2022-11-20T09:12:08;16.00;;;14.30;;
57107;SDS011;42987;52.916;6.542;2022-11-20T09:14:34;16.33;;;14.73;;
57107;SDS011;42987;52.916;6.542;2022-11-20T09:17:00;16.23;;;14.63;;
57107;SDS011;42987;52.916;6.542;2022-11-20T09:19:26;16.00;;;14.40;;
57107;SDS011;42987;52.916;6.542;2022-11-20T09:21:52;16.03;;;14.33;;
57107;SDS011;42987;52.916;6.542;2022-11-20T09:24:17;16.33;;;14.73;;
57107;SDS011;42987;52.916;6.542;2022-11-20T09:26:44;15.93;;;14.43;;
57107;SDS011;42987;52.916;6.542;2022-11-20T09:29:10;15.50;;;13.67;;
57107;SDS011;42987;52.916;6.542;2022-11-20T09:31:35;15.03;;;13.50;;
57107;SDS011;42987;52.916;6.542;2022-11-20T09:34:01;15.40;;;13.83;;
57107;SDS011;42987;52.916;6.542;2022-11-20T09:36:27;16.00;;;14.30;;
57107;SDS011;42987;52.916;6.542;2022-11-20T09:38:56;16.00;;;14.33;;
57107;SDS011;42987;52.916;6.542;2022-11-20T09:47:23;15.03;;;13.50;;
57107;SDS011;42987;52.916;6.542;2022-11-20T09:50:19;14.37;;;12.80;;
57107;SDS011;42987;52.916;6.542;2022-11-20T09:53:09;15.10;;;13.60;;
57107;SDS011;42987;52.916;6.542;2022-11-20T09:55:36;15.03;;;13.53;;
57107;SDS011;42987;52.916;6.542;2022-11-20T09:58:05;15.17;;;13.47;;
57107;SDS011;42987;52.916;6.542;2022-11-20T10:00:32;15.60;;;13.70;;
57107;SDS011;42987;52.916;6.542;2022-11-20T10:03:26;14.97;;;13.43;;
57107;SDS011;42987;52.916;6.542;2022-11-20T10:05:58;14.90;;;13.40;;
57107;SDS011;42987;52.916;6.542;2022-11-20T10:08:39;15.03;;;13.33;;
57107;SDS011;42987;52.916;6.542;2022-11-20T10:11:56;16.63;;;13.87;;
57107;SDS011;42987;52.916;6.542;2022-11-20T10:25:24;15.40;;;13.83;;
57107;SDS011;42987;52.916;6.542;2022-11-20T10:30:40;14.63;;;13.13;;
57107;SDS011;42987;52.916;6.542;2022-11-20T10:33:13;13.73;;;12.33;;
57107;SDS011;42987;52.916;6.542;2022-11-20T10:38:25;12.95;;;11.65;;
57107;SDS011;42987;52.916;6.542;2022-11-20T10:41:11;14.27;;;12.67;;
57107;SDS011;42987;52.916;6.542;2022-11-20T10:43:50;13.13;;;11.75;;
57107;SDS011;42987;52.916;6.542;2022-11-20T10:46:27;14.37;;;12.87;;
57107;SDS011;42987;52.916;6.542;2022-11-20T10:49:13;14.40;;;12.90;;
57107;SDS011;42987;52.916;6.542;2022-11-20T10:54:37;14.80;;;12.10;;
57107;SDS011;42987;52.916;6.542;2022-11-20T10:57:24;15.13;;;13.53;;
57107;SDS011;42987;52.916;6.542;2022-11-20T11:00:10;14.90;;;13.30;;
57107;SDS011;42987;52.916;6.542;2022-11-20T11:02:42;14.13;;;12.73;;
57107;SDS011;42987;52.916;6.542;2022-11-20T11:07:51;14.83;;;13.20;;
57107;SDS011;42987;52.916;6.542;2022-11-20T11:13:01;14.13;;;12.67;;
57107;SDS011;42987;52.916;6.542;2022-11-20T11:15:37;12.83;;;11.43;;
57107;SDS011;42987;52.916;6.542;2022-11-20T11:18:05;13.67;;;11.47;;
57107;SDS011;42987;52.916;6.542;2022-11-20T11:20:34;11.63;;;10.43;;
57107;SDS011;42987;52.916;6.542;2022-11-20T11:22:59;11.20;;;10.00;;
57107;SDS011;42987;52.916;6.542;2022-11-20T11:25:29;11.30;;;10.20;;
57107;SDS011;42987;52.916;6.542;2022-11-20T11:28:18;12.30;;;10.67;;
57107;SDS011;42987;52.916;6.542;2022-11-20T11:30:46;11.27;;;10.07;;
57107;SDS011;42987;52.916;6.542;2022-11-20T11:33:19;12.63;;;10.57;;
57107;SDS011;42987;52.916;6.542;2022-11-20T11:35:57;12.23;;;10.97;;
57107;SDS011;42987;52.916;6.542;2022-11-20T11:38:30;13.83;;;11.47;;
57107;SDS011;42987;52.916;6.542;2022-11-20T11:41:01;12.13;;;10.63;;
57107;SDS011;42987;52.916;6.542;2022-11-20T11:43:31;13.13;;;11.73;;
57107;SDS011;42987;52.916;6.542;2022-11-20T11:46:24;11.83;;;10.50;;
57107;SDS011;42987;52.916;6.542;2022-11-20T11:48:57;12.17;;;10.87;;
57107;SDS011;42987;52.916;6.542;2022-11-20T11:51:39;12.40;;;11.20;;
57107;SDS011;42987;52.916;6.542;2022-11-20T11:54:26;11.95;;;10.13;;
57107;SDS011;42987;52.916;6.542;2022-11-20T12:00:00;11.50;;;10.40;;
57107;SDS011;42987;52.916;6.542;2022-11-20T12:07:43;12.67;;;11.43;;
57107;SDS011;42987;52.916;6.542;2022-11-20T12:15:59;12.13;;;10.83;;
57107;SDS011;42987;52.916;6.542;2022-11-20T12:18:29;12.55;;;10.88;;
57107;SDS011;42987;52.916;6.542;2022-11-20T12:26:05;10.20;;;9.20;;
57107;SDS011;42987;52.916;6.542;2022-11-20T12:37:18;9.83;;;8.30;;
57107;SDS011;42987;52.916;6.542;2022-11-20T12:39:48;8.05;;;7.22;;
57107;SDS011;42987;52.916;6.542;2022-11-20T12:51:14;9.30;;;8.40;;
57107;SDS011;42987;52.916;6.542;2022-11-20T12:54:05;9.90;;;8.87;;
57107;SDS011;42987;52.916;6.542;2022-11-20T13:01:50;10.30;;;9.30;;
57107;SDS011;42987;52.916;6.542;2022-11-20T13:06:46;10.10;;;9.00;;
57107;SDS011;42987;52.916;6.542;2022-11-20T13:09:15;9.60;;;8.60;;
57107;SDS011;42987;52.916;6.542;2022-11-20T13:11:53;10.33;;;9.20;;
57107;SDS011;42987;52.916;6.542;2022-11-20T13:14:46;12.13;;;9.87;;
57107;SDS011;42987;52.916;6.542;2022-11-20T13:20:12;11.60;;;10.40;;
57107;SDS011;42987;52.916;6.542;2022-11-20T13:27:54;12.57;;;11.27;;
57107;SDS011;42987;52.916;6.542;2022-11-20T13:30:25;12.93;;;11.63;;
57107;SDS011;42987;52.916;6.542;2022-11-20T13:33:08;13.17;;;10.83;;
57107;SDS011;42987;52.916;6.542;2022-11-20T13:35:55;11.87;;;10.67;;
57107;SDS011;42987;52.916;6.542;2022-11-20T13:38:26;13.30;;;11.30;;
57107;SDS011;42987;52.916;6.542;2022-11-20T13:43:44;12.83;;;11.53;;
57107;SDS011;42987;52.916;6.542;2022-11-20T13:46:13;13.52;;;12.23;;
57107;SDS011;42987;52.916;6.542;2022-11-20T13:48:43;14.50;;;12.73;;
57107;SDS011;42987;52.916;6.542;2022-11-20T13:53:42;12.60;;;11.40;;
57107;SDS011;42987;52.916;6.542;2022-11-20T13:59:18;13.00;;;11.53;;
57107;SDS011;42987;52.916;6.542;2022-11-20T14:02:11;13.77;;;12.37;;
57107;SDS011;42987;52.916;6.542;2022-11-20T14:04:42;13.80;;;12.50;;
57107;SDS011;42987;52.916;6.542;2022-11-20T14:07:10;13.98;;;12.52;;
57107;SDS011;42987;52.916;6.542;2022-11-20T14:09:36;13.50;;;12.20;;
57107;SDS011;42987;52.916;6.542;2022-11-20T14:12:03;13.93;;;12.47;;
57107;SDS011;42987;52.916;6.542;2022-11-20T14:14:46;14.50;;;13.07;;
57107;SDS011;42987;52.916;6.542;2022-11-20T14:19:48;14.20;;;12.70;;
57107;SDS011;42987;52.916;6.542;2022-11-20T14:22:20;14.30;;;12.80;;
57107;SDS011;42987;52.916;6.542;2022-11-20T14:24:47;13.07;;;11.67;;
57107;SDS011;42987;52.916;6.542;2022-11-20T14:27:25;14.00;;;12.53;;
57107;SDS011;42987;52.916;6.542;2022-11-20T14:29:51;14.27;;;12.87;;
57107;SDS011;42987;52.916;6.542;2022-11-20T14:32:21;14.57;;;13.00;;
57107;SDS011;42987;52.916;6.542;2022-11-20T14:34:51;14.63;;;13.13;;
57107;SDS011;42987;52.916;6.542;2022-11-20T14:37:21;14.97;;;13.37;;
57107;SDS011;42987;52.916;6.542;2022-11-20T14:39:51;13.80;;;12.50;;
57107;SDS011;42987;52.916;6.542;2022-11-20T14:42:20;14.30;;;13.00;;
57107;SDS011;42987;52.916;6.542;2022-11-20T14:44:50;15.17;;;13.17;;
57107;SDS011;42987;52.916;6.542;2022-11-20T14:47:27;14.77;;;13.32;;
57107;SDS011;42987;52.916;6.542;2022-11-20T14:49:55;16.20;;;14.17;;
57107;SDS011;42987;52.916;6.542;2022-11-20T14:52:26;15.90;;;14.40;;
57107;SDS011;42987;52.916;6.542;2022-11-20T14:54:56;16.77;;;14.57;;
57107;SDS011;42987;52.916;6.542;2022-11-20T14:57:30;14.63;;;13.10;;
57107;SDS011;42987;52.916;6.542;2022-11-20T15:02:33;16.17;;;14.47;;
57107;SDS011;42987;52.916;6.542;2022-11-20T15:05:01;17.10;;;15.30;;
57107;SDS011;42987;52.916;6.542;2022-11-20T15:07:32;16.50;;;14.87;;
57107;SDS011;42987;52.916;6.542;2022-11-20T15:12:48;16.70;;;14.97;;
57107;SDS011;42987;52.916;6.542;2022-11-20T15:17:49;15.57;;;14.00;;
57107;SDS011;42987;52.916;6.542;2022-11-20T15:20:16;17.10;;;15.40;;
57107;SDS011;42987;52.916;6.542;2022-11-20T15:22:43;17.00;;;15.27;;
57107;SDS011;42987;52.916;6.542;2022-11-20T15:25:16;17.03;;;15.43;;
57107;SDS011;42987;52.916;6.542;2022-11-20T15:27:43;17.57;;;15.87;;
57107;SDS011;42987;52.916;6.542;2022-11-20T15:30:14;16.90;;;15.30;;
57107;SDS011;42987;52.916;6.542;2022-11-20T15:32:42;17.47;;;15.77;;
57107;SDS011;42987;52.916;6.542;2022-11-20T15:35:12;18.58;;;16.77;;
57107;SDS011;42987;52.916;6.542;2022-11-20T15:37:39;17.20;;;15.60;;
57107;SDS011;42987;52.916;6.542;2022-11-20T15:40:06;17.73;;;16.03;;
57107;SDS011;42987;52.916;6.542;2022-11-20T15:42:33;18.50;;;16.77;;
57107;SDS011;42987;52.916;6.542;2022-11-20T15:44:59;18.83;;;16.87;;
57107;SDS011;42987;52.916;6.542;2022-11-20T15:47:26;18.93;;;17.10;;
57107;SDS011;42987;52.916;6.542;2022-11-20T15:49:55;19.47;;;17.50;;
57107;SDS011;42987;52.916;6.542;2022-11-20T15:52:21;19.10;;;17.20;;
57107;SDS011;42987;52.916;6.542;2022-11-20T15:54:47;18.67;;;16.87;;
57107;SDS011;42987;52.916;6.542;2022-11-20T15:57:13;18.37;;;16.47;;
57107;SDS011;42987;52.916;6.542;2022-11-20T15:59:39;19.47;;;17.47;;
57107;SDS011;42987;52.916;6.542;2022-11-20T16:02:13;18.60;;;16.70;;
57107;SDS011;42987;52.916;6.542;2022-11-20T16:04:40;18.93;;;17.03;;
57107;SDS011;42987;52.916;6.542;2022-11-20T16:07:07;18.67;;;16.87;;
57107;SDS011;42987;52.916;6.542;2022-11-20T16:09:33;19.40;;;17.40;;
57107;SDS011;42987;52.916;6.542;2022-11-20T16:11:59;19.47;;;17.57;;
57107;SDS011;42987;52.916;6.542;2022-11-20T16:14:31;19.20;;;17.30;;
57107;SDS011;42987;52.916;6.542;2022-11-20T16:17:15;20.63;;;18.52;;
57107;SDS011;42987;52.916;6.542;2022-11-20T16:20:01;19.97;;;18.00;;